Almeria, Spain
Current Conditions -  °F | °C
As of 10:30 PM on Saturday 25 Oct 2014 (Local Time) from LEAM Reporting Station
Clear Clear  
Wind Chill: 72°   Ceiling: Unl
Heat Index: 72°   Visibility: 6mi
Dew Point: 37°   Wind: 2mph
Humidity: 29%   Direction: NA
Pressure: 30.09"   Gusts: NA
Location:  36.84°N, 2.47°W
Report Text: LEAM 252030Z VRB02KT CAVOK 22/03 Q1019
Loading
Personal Weather Stations






























Interactive Weather Map
Tropical Storm Tracking
New forecast layout! Learn more

10-Day Weather Forecast

Advertisements
Track Severe Weather on mobile